sensor_id;sensor_type;location;lat;lon;timestamp;P1;durP1;ratioP1;P2;durP2;ratioP2
20369;SDS011;10344;47.592;9.600;2022-08-19T00:01:30;5.77;;;5.27;;
20369;SDS011;10344;47.592;9.600;2022-08-19T00:04:02;5.22;;;4.72;;
20369;SDS011;10344;47.592;9.600;2022-08-19T00:06:33;5.80;;;5.20;;
20369;SDS011;10344;47.592;9.600;2022-08-19T00:09:00;6.07;;;5.45;;
20369;SDS011;10344;47.592;9.600;2022-08-19T00:11:26;6.10;;;5.47;;
20369;SDS011;10344;47.592;9.600;2022-08-19T00:13:55;5.30;;;4.82;;
20369;SDS011;10344;47.592;9.600;2022-08-19T00:16:24;5.25;;;4.75;;
20369;SDS011;10344;47.592;9.600;2022-08-19T00:18:50;5.40;;;4.68;;
20369;SDS011;10344;47.592;9.600;2022-08-19T00:21:18;5.05;;;4.65;;
20369;SDS011;10344;47.592;9.600;2022-08-19T00:23:44;6.10;;;5.50;;
20369;SDS011;10344;47.592;9.600;2022-08-19T00:26:10;6.37;;;5.77;;
20369;SDS011;10344;47.592;9.600;2022-08-19T00:28:36;6.50;;;5.90;;
20369;SDS011;10344;47.592;9.600;2022-08-19T00:31:06;6.50;;;5.90;;
20369;SDS011;10344;47.592;9.600;2022-08-19T00:33:51;7.00;;;6.32;;
20369;SDS011;10344;47.592;9.600;2022-08-19T00:39:50;7.20;;;6.50;;
20369;SDS011;10344;47.592;9.600;2022-08-19T00:42:16;7.38;;;6.68;;
20369;SDS011;10344;47.592;9.600;2022-08-19T00:44:43;7.93;;;7.13;;
20369;SDS011;10344;47.592;9.600;2022-08-19T00:47:12;8.03;;;7.23;;
20369;SDS011;10344;47.592;9.600;2022-08-19T00:52:29;7.90;;;7.10;;
20369;SDS011;10344;47.592;9.600;2022-08-19T00:55:03;6.93;;;6.25;;
20369;SDS011;10344;47.592;9.600;2022-08-19T00:57:34;6.90;;;6.20;;
20369;SDS011;10344;47.592;9.600;2022-08-19T01:00:05;6.47;;;5.88;;
20369;SDS011;10344;47.592;9.600;2022-08-19T01:02:36;6.78;;;6.18;;
20369;SDS011;10344;47.592;9.600;2022-08-19T01:05:04;7.77;;;6.40;;
20369;SDS011;10344;47.592;9.600;2022-08-19T01:07:36;7.47;;;6.77;;
20369;SDS011;10344;47.592;9.600;2022-08-19T01:10:04;7.40;;;6.70;;
20369;SDS011;10344;47.592;9.600;2022-08-19T01:12:32;7.82;;;6.88;;
20369;SDS011;10344;47.592;9.600;2022-08-19T01:14:59;7.70;;;6.90;;
20369;SDS011;10344;47.592;9.600;2022-08-19T01:17:25;7.97;;;7.28;;
20369;SDS011;10344;47.592;9.600;2022-08-19T01:19:51;8.57;;;7.70;;
20369;SDS011;10344;47.592;9.600;2022-08-19T01:22:25;7.97;;;7.20;;
20369;SDS011;10344;47.592;9.600;2022-08-19T01:24:53;8.00;;;7.20;;
20369;SDS011;10344;47.592;9.600;2022-08-19T01:27:22;8.53;;;7.63;;
20369;SDS011;10344;47.592;9.600;2022-08-19T01:29:49;8.10;;;7.30;;
20369;SDS011;10344;47.592;9.600;2022-08-19T01:32:15;8.18;;;7.38;;
20369;SDS011;10344;47.592;9.600;2022-08-19T01:34:42;8.35;;;7.55;;
20369;SDS011;10344;47.592;9.600;2022-08-19T01:37:11;8.63;;;7.80;;
20369;SDS011;10344;47.592;9.600;2022-08-19T01:39:39;8.48;;;7.65;;
20369;SDS011;10344;47.592;9.600;2022-08-19T01:42:07;8.93;;;7.95;;
20369;SDS011;10344;47.592;9.600;2022-08-19T01:44:38;8.93;;;8.02;;
20369;SDS011;10344;47.592;9.600;2022-08-19T01:47:05;8.52;;;7.63;;
20369;SDS011;10344;47.592;9.600;2022-08-19T01:49:34;8.50;;;7.68;;
20369;SDS011;10344;47.592;9.600;2022-08-19T01:52:00;8.80;;;7.90;;
20369;SDS011;10344;47.592;9.600;2022-08-19T01:54:28;9.98;;;9.00;;
20369;SDS011;10344;47.592;9.600;2022-08-19T01:57:04;9.43;;;8.43;;
20369;SDS011;10344;47.592;9.600;2022-08-19T01:59:35;9.63;;;8.63;;
20369;SDS011;10344;47.592;9.600;2022-08-19T02:02:04;9.85;;;8.52;;
20369;SDS011;10344;47.592;9.600;2022-08-19T02:04:33;8.68;;;7.80;;
20369;SDS011;10344;47.592;9.600;2022-08-19T02:07:00;8.95;;;8.05;;
20369;SDS011;10344;47.592;9.600;2022-08-19T02:09:26;9.43;;;8.52;;
20369;SDS011;10344;47.592;9.600;2022-08-19T02:11:52;8.98;;;8.07;;
20369;SDS011;10344;47.592;9.600;2022-08-19T02:14:18;9.13;;;8.30;;
20369;SDS011;10344;47.592;9.600;2022-08-19T02:16:43;9.80;;;8.80;;
20369;SDS011;10344;47.592;9.600;2022-08-19T02:19:09;9.75;;;8.85;;
20369;SDS011;10344;47.592;9.600;2022-08-19T02:21:37;9.40;;;8.50;;
20369;SDS011;10344;47.592;9.600;2022-08-19T02:24:03;9.57;;;8.67;;
20369;SDS011;10344;47.592;9.600;2022-08-19T02:26:29;9.48;;;8.48;;
20369;SDS011;10344;47.592;9.600;2022-08-19T02:28:55;9.20;;;8.30;;
20369;SDS011;10344;47.592;9.600;2022-08-19T02:31:24;9.27;;;8.38;;
20369;SDS011;10344;47.592;9.600;2022-08-19T02:33:50;10.25;;;9.25;;
20369;SDS011;10344;47.592;9.600;2022-08-19T02:36:17;9.82;;;8.82;;
20369;SDS011;10344;47.592;9.600;2022-08-19T02:38:43;9.67;;;8.77;;
20369;SDS011;10344;47.592;9.600;2022-08-19T02:41:17;9.65;;;8.75;;
20369;SDS011;10344;47.592;9.600;2022-08-19T02:43:44;9.45;;;8.45;;
20369;SDS011;10344;47.592;9.600;2022-08-19T02:46:11;10.30;;;9.30;;
20369;SDS011;10344;47.592;9.600;2022-08-19T02:48:38;10.93;;;9.20;;
20369;SDS011;10344;47.592;9.600;2022-08-19T02:51:06;10.38;;;9.38;;
20369;SDS011;10344;47.592;9.600;2022-08-19T02:53:32;9.77;;;8.82;;
20369;SDS011;10344;47.592;9.600;2022-08-19T02:55:58;10.30;;;9.40;;
20369;SDS011;10344;47.592;9.600;2022-08-19T02:58:26;9.60;;;8.70;;
20369;SDS011;10344;47.592;9.600;2022-08-19T03:00:55;10.57;;;9.50;;
20369;SDS011;10344;47.592;9.600;2022-08-19T03:03:21;10.63;;;9.63;;
20369;SDS011;10344;47.592;9.600;2022-08-19T03:05:50;10.88;;;9.88;;
20369;SDS011;10344;47.592;9.600;2022-08-19T03:08:16;9.95;;;8.95;;
20369;SDS011;10344;47.592;9.600;2022-08-19T03:10:45;11.82;;;9.57;;
20369;SDS011;10344;47.592;9.600;2022-08-19T03:13:15;10.88;;;9.77;;
20369;SDS011;10344;47.592;9.600;2022-08-19T03:15:43;10.23;;;8.90;;
20369;SDS011;10344;47.592;9.600;2022-08-19T03:18:11;10.00;;;9.00;;
20369;SDS011;10344;47.592;9.600;2022-08-19T03:20:41;10.47;;;9.40;;
20369;SDS011;10344;47.592;9.600;2022-08-19T03:23:12;10.00;;;9.10;;
20369;SDS011;10344;47.592;9.600;2022-08-19T03:25:39;11.35;;;10.15;;
20369;SDS011;10344;47.592;9.600;2022-08-19T03:28:08;11.65;;;10.55;;
20369;SDS011;10344;47.592;9.600;2022-08-19T03:30:34;10.73;;;9.73;;
20369;SDS011;10344;47.592;9.600;2022-08-19T03:33:00;11.77;;;10.38;;
20369;SDS011;10344;47.592;9.600;2022-08-19T03:35:27;9.93;;;9.02;;
20369;SDS011;10344;47.592;9.600;2022-08-19T03:37:52;10.93;;;9.83;;
20369;SDS011;10344;47.592;9.600;2022-08-19T03:40:18;11.40;;;10.30;;
20369;SDS011;10344;47.592;9.600;2022-08-19T03:42:44;11.87;;;10.30;;
20369;SDS011;10344;47.592;9.600;2022-08-19T03:45:11;11.60;;;10.40;;
20369;SDS011;10344;47.592;9.600;2022-08-19T03:47:37;11.27;;;10.17;;
20369;SDS011;10344;47.592;9.600;2022-08-19T03:50:03;10.10;;;9.03;;
20369;SDS011;10344;47.592;9.600;2022-08-19T03:52:29;10.32;;;9.30;;
20369;SDS011;10344;47.592;9.600;2022-08-19T03:54:57;11.50;;;10.30;;
20369;SDS011;10344;47.592;9.600;2022-08-19T03:57:23;9.73;;;8.77;;
20369;SDS011;10344;47.592;9.600;2022-08-19T03:59:48;11.07;;;9.93;;
20369;SDS011;10344;47.592;9.600;2022-08-19T04:02:16;11.00;;;9.90;;
20369;SDS011;10344;47.592;9.600;2022-08-19T04:04:45;11.52;;;10.27;;
20369;SDS011;10344;47.592;9.600;2022-08-19T04:07:11;10.68;;;9.57;;
20369;SDS011;10344;47.592;9.600;2022-08-19T04:09:41;11.50;;;10.30;;
20369;SDS011;10344;47.592;9.600;2022-08-19T04:12:07;10.27;;;9.27;;
20369;SDS011;10344;47.592;9.600;2022-08-19T04:14:33;10.15;;;9.15;;
20369;SDS011;10344;47.592;9.600;2022-08-19T04:17:00;10.35;;;9.35;;
20369;SDS011;10344;47.592;9.600;2022-08-19T04:19:29;11.73;;;9.98;;
20369;SDS011;10344;47.592;9.600;2022-08-19T04:21:58;11.27;;;9.95;;
20369;SDS011;10344;47.592;9.600;2022-08-19T04:24:24;12.68;;;11.25;;
20369;SDS011;10344;47.592;9.600;2022-08-19T04:26:53;10.23;;;9.23;;
20369;SDS011;10344;47.592;9.600;2022-08-19T04:29:23;10.40;;;9.23;;
20369;SDS011;10344;47.592;9.600;2022-08-19T04:31:50;10.52;;;9.45;;
20369;SDS011;10344;47.592;9.600;2022-08-19T04:34:19;12.23;;;10.95;;
20369;SDS011;10344;47.592;9.600;2022-08-19T04:36:49;11.30;;;9.37;;
20369;SDS011;10344;47.592;9.600;2022-08-19T04:39:17;10.48;;;9.38;;
20369;SDS011;10344;47.592;9.600;2022-08-19T04:41:45;10.35;;;9.35;;
20369;SDS011;10344;47.592;9.600;2022-08-19T04:44:33;9.60;;;8.70;;
20369;SDS011;10344;47.592;9.600;2022-08-19T04:47:00;11.75;;;10.50;;
20369;SDS011;10344;47.592;9.600;2022-08-19T04:49:30;10.75;;;9.65;;
20369;SDS011;10344;47.592;9.600;2022-08-19T04:51:56;11.00;;;9.90;;
20369;SDS011;10344;47.592;9.600;2022-08-19T04:54:23;12.52;;;11.23;;
20369;SDS011;10344;47.592;9.600;2022-08-19T04:56:52;12.85;;;11.45;;
20369;SDS011;10344;47.592;9.600;2022-08-19T04:59:20;11.60;;;10.38;;
20369;SDS011;10344;47.592;9.600;2022-08-19T05:01:46;11.52;;;10.35;;
20369;SDS011;10344;47.592;9.600;2022-08-19T05:04:16;13.43;;;12.02;;
20369;SDS011;10344;47.592;9.600;2022-08-19T05:06:44;12.50;;;11.20;;
20369;SDS011;10344;47.592;9.600;2022-08-19T05:09:12;11.90;;;10.48;;
20369;SDS011;10344;47.592;9.600;2022-08-19T05:11:38;10.98;;;9.80;;
20369;SDS011;10344;47.592;9.600;2022-08-19T05:14:04;13.82;;;11.82;;
20369;SDS011;10344;47.592;9.600;2022-08-19T05:16:31;9.88;;;8.88;;
20369;SDS011;10344;47.592;9.600;2022-08-19T05:18:56;13.60;;;11.02;;
20369;SDS011;10344;47.592;9.600;2022-08-19T05:21:41;13.38;;;11.85;;
20369;SDS011;10344;47.592;9.600;2022-08-19T05:24:26;14.15;;;12.68;;
20369;SDS011;10344;47.592;9.600;2022-08-19T05:26:55;11.15;;;10.00;;
20369;SDS011;10344;47.592;9.600;2022-08-19T05:29:22;14.38;;;12.05;;
20369;SDS011;10344;47.592;9.600;2022-08-19T05:31:50;12.38;;;10.85;;
20369;SDS011;10344;47.592;9.600;2022-08-19T05:34:16;14.10;;;12.10;;
20369;SDS011;10344;47.592;9.600;2022-08-19T05:36:46;15.38;;;12.77;;
20369;SDS011;10344;47.592;9.600;2022-08-19T05:39:13;16.50;;;13.40;;
20369;SDS011;10344;47.592;9.600;2022-08-19T05:41:43;14.55;;;12.25;;
20369;SDS011;10344;47.592;9.600;2022-08-19T05:44:18;13.88;;;12.32;;
20369;SDS011;10344;47.592;9.600;2022-08-19T05:46:47;15.63;;;13.25;;
20369;SDS011;10344;47.592;9.600;2022-08-19T05:49:15;14.30;;;11.77;;
20369;SDS011;10344;47.592;9.600;2022-08-19T05:51:41;13.68;;;11.80;;
20369;SDS011;10344;47.592;9.600;2022-08-19T05:54:08;14.35;;;12.80;;
20369;SDS011;10344;47.592;9.600;2022-08-19T05:56:34;15.98;;;13.35;;
20369;SDS011;10344;47.592;9.600;2022-08-19T05:59:03;14.05;;;12.13;;
20369;SDS011;10344;47.592;9.600;2022-08-19T06:01:33;14.20;;;12.40;;
20369;SDS011;10344;47.592;9.600;2022-08-19T06:03:59;15.98;;;13.30;;
20369;SDS011;10344;47.592;9.600;2022-08-19T06:06:25;16.45;;;13.20;;
20369;SDS011;10344;47.592;9.600;2022-08-19T06:08:51;14.70;;;12.77;;
20369;SDS011;10344;47.592;9.600;2022-08-19T06:13:45;16.50;;;13.40;;
20369;SDS011;10344;47.592;9.600;2022-08-19T06:16:15;14.60;;;12.77;;
20369;SDS011;10344;47.592;9.600;2022-08-19T06:18:54;15.35;;;13.52;;
20369;SDS011;10344;47.592;9.600;2022-08-19T06:21:23;14.95;;;12.77;;
20369;SDS011;10344;47.592;9.600;2022-08-19T06:23:52;15.98;;;13.25;;
20369;SDS011;10344;47.592;9.600;2022-08-19T06:26:18;17.27;;;14.40;;
20369;SDS011;10344;47.592;9.600;2022-08-19T06:28:46;17.52;;;14.70;;
20369;SDS011;10344;47.592;9.600;2022-08-19T06:31:13;17.58;;;14.30;;
20369;SDS011;10344;47.592;9.600;2022-08-19T06:33:45;17.75;;;15.48;;
20369;SDS011;10344;47.592;9.600;2022-08-19T06:38:46;18.77;;;14.95;;
20369;SDS011;10344;47.592;9.600;2022-08-19T06:41:11;20.02;;;15.70;;
20369;SDS011;10344;47.592;9.600;2022-08-19T06:43:39;18.63;;;15.18;;
20369;SDS011;10344;47.592;9.600;2022-08-19T06:46:11;19.15;;;15.55;;
20369;SDS011;10344;47.592;9.600;2022-08-19T06:48:40;18.05;;;14.80;;
20369;SDS011;10344;47.592;9.600;2022-08-19T06:51:06;19.88;;;15.35;;
20369;SDS011;10344;47.592;9.600;2022-08-19T06:53:32;17.88;;;15.25;;
20369;SDS011;10344;47.592;9.600;2022-08-19T06:56:00;18.03;;;15.03;;
20369;SDS011;10344;47.592;9.600;2022-08-19T06:58:27;21.13;;;16.73;;
20369;SDS011;10344;47.592;9.600;2022-08-19T07:01:04;20.20;;;16.25;;
20369;SDS011;10344;47.592;9.600;2022-08-19T07:03:35;19.00;;;15.68;;
20369;SDS011;10344;47.592;9.600;2022-08-19T07:06:02;19.08;;;16.27;;
20369;SDS011;10344;47.592;9.600;2022-08-19T07:08:30;19.20;;;15.90;;
20369;SDS011;10344;47.592;9.600;2022-08-19T07:10:55;19.10;;;15.25;;
20369;SDS011;10344;47.592;9.600;2022-08-19T07:13:21;21.17;;;15.73;;
20369;SDS011;10344;47.592;9.600;2022-08-19T07:15:47;19.52;;;15.07;;
20369;SDS011;10344;47.592;9.600;2022-08-19T07:18:14;19.83;;;15.83;;
20369;SDS011;10344;47.592;9.600;2022-08-19T07:20:40;17.37;;;14.57;;
20369;SDS011;10344;47.592;9.600;2022-08-19T07:23:06;17.35;;;14.45;;
20369;SDS011;10344;47.592;9.600;2022-08-19T07:25:32;19.65;;;15.63;;
20369;SDS011;10344;47.592;9.600;2022-08-19T07:27:57;19.58;;;15.77;;
20369;SDS011;10344;47.592;9.600;2022-08-19T07:30:23;20.43;;;15.70;;
20369;SDS011;10344;47.592;9.600;2022-08-19T07:32:49;18.63;;;14.67;;
20369;SDS011;10344;47.592;9.600;2022-08-19T07:35:17;18.00;;;15.02;;
20369;SDS011;10344;47.592;9.600;2022-08-19T07:37:44;18.08;;;14.48;;
20369;SDS011;10344;47.592;9.600;2022-08-19T07:40:15;18.10;;;14.75;;
20369;SDS011;10344;47.592;9.600;2022-08-19T07:42:40;16.75;;;14.05;;
20369;SDS011;10344;47.592;9.600;2022-08-19T07:45:07;19.03;;;15.60;;
20369;SDS011;10344;47.592;9.600;2022-08-19T07:47:33;18.83;;;15.48;;
20369;SDS011;10344;47.592;9.600;2022-08-19T07:49:59;18.98;;;14.80;;
20369;SDS011;10344;47.592;9.600;2022-08-19T07:52:25;19.27;;;14.27;;
20369;SDS011;10344;47.592;9.600;2022-08-19T07:54:53;17.27;;;14.40;;
20369;SDS011;10344;47.592;9.600;2022-08-19T07:57:18;16.92;;;13.88;;
20369;SDS011;10344;47.592;9.600;2022-08-19T07:59:44;19.25;;;15.35;;
20369;SDS011;10344;47.592;9.600;2022-08-19T08:02:09;17.03;;;14.23;;
20369;SDS011;10344;47.592;9.600;2022-08-19T08:04:35;17.83;;;14.37;;
20369;SDS011;10344;47.592;9.600;2022-08-19T08:07:19;17.65;;;14.43;;
20369;SDS011;10344;47.592;9.600;2022-08-19T08:10:05;18.67;;;15.13;;
20369;SDS011;10344;47.592;9.600;2022-08-19T08:12:33;18.02;;;14.93;;
20369;SDS011;10344;47.592;9.600;2022-08-19T08:15:07;19.75;;;15.70;;
20369;SDS011;10344;47.592;9.600;2022-08-19T08:17:35;15.95;;;13.25;;
20369;SDS011;10344;47.592;9.600;2022-08-19T08:20:03;18.27;;;15.43;;
20369;SDS011;10344;47.592;9.600;2022-08-19T08:22:31;19.52;;;15.20;;
20369;SDS011;10344;47.592;9.600;2022-08-19T08:25:17;18.73;;;15.63;;
20369;SDS011;10344;47.592;9.600;2022-08-19T08:27:45;18.40;;;15.27;;
20369;SDS011;10344;47.592;9.600;2022-08-19T08:30:14;16.80;;;14.73;;
20369;SDS011;10344;47.592;9.600;2022-08-19T08:32:42;20.90;;;16.05;;
20369;SDS011;10344;47.592;9.600;2022-08-19T08:35:13;20.97;;;15.87;;
20369;SDS011;10344;47.592;9.600;2022-08-19T08:37:40;17.70;;;14.80;;
20369;SDS011;10344;47.592;9.600;2022-08-19T08:40:07;20.83;;;16.33;;
20369;SDS011;10344;47.592;9.600;2022-08-19T08:42:40;18.07;;;15.80;;
20369;SDS011;10344;47.592;9.600;2022-08-19T08:45:16;17.98;;;15.00;;
20369;SDS011;10344;47.592;9.600;2022-08-19T08:47:44;19.73;;;16.20;;
20369;SDS011;10344;47.592;9.600;2022-08-19T08:52:50;18.88;;;15.20;;
20369;SDS011;10344;47.592;9.600;2022-08-19T08:55:24;20.88;;;16.33;;
20369;SDS011;10344;47.592;9.600;2022-08-19T08:57:53;19.95;;;16.13;;
20369;SDS011;10344;47.592;9.600;2022-08-19T09:00:30;17.25;;;14.65;;
20369;SDS011;10344;47.592;9.600;2022-08-19T09:02:59;19.15;;;15.25;;
20369;SDS011;10344;47.592;9.600;2022-08-19T09:05:34;19.45;;;15.75;;
20369;SDS011;10344;47.592;9.600;2022-08-19T09:08:19;18.05;;;14.68;;
20369;SDS011;10344;47.592;9.600;2022-08-19T09:10:53;19.00;;;15.50;;
20369;SDS011;10344;47.592;9.600;2022-08-19T09:16:00;21.90;;;17.05;;
20369;SDS011;10344;47.592;9.600;2022-08-19T09:21:07;21.60;;;15.82;;
20369;SDS011;10344;47.592;9.600;2022-08-19T09:23:34;22.35;;;17.38;;
20369;SDS011;10344;47.592;9.600;2022-08-19T09:26:00;22.33;;;17.97;;
20369;SDS011;10344;47.592;9.600;2022-08-19T09:28:27;23.70;;;18.13;;
20369;SDS011;10344;47.592;9.600;2022-08-19T09:30:54;24.15;;;18.55;;
20369;SDS011;10344;47.592;9.600;2022-08-19T09:33:19;26.48;;;19.55;;
20369;SDS011;10344;47.592;9.600;2022-08-19T09:35:45;22.35;;;17.00;;
20369;SDS011;10344;47.592;9.600;2022-08-19T09:38:11;23.23;;;18.80;;
20369;SDS011;10344;47.592;9.600;2022-08-19T09:40:36;24.70;;;19.75;;
20369;SDS011;10344;47.592;9.600;2022-08-19T09:43:05;24.65;;;19.08;;
20369;SDS011;10344;47.592;9.600;2022-08-19T09:45:35;24.88;;;18.90;;
20369;SDS011;10344;47.592;9.600;2022-08-19T09:48:03;25.65;;;19.80;;
20369;SDS011;10344;47.592;9.600;2022-08-19T09:50:29;25.52;;;19.23;;
20369;SDS011;10344;47.592;9.600;2022-08-19T09:53:00;28.23;;;21.13;;
20369;SDS011;10344;47.592;9.600;2022-08-19T09:55:26;25.13;;;18.55;;
20369;SDS011;10344;47.592;9.600;2022-08-19T09:57:53;25.77;;;20.15;;
20369;SDS011;10344;47.592;9.600;2022-08-19T10:00:21;24.65;;;19.35;;
20369;SDS011;10344;47.592;9.600;2022-08-19T10:02:46;23.38;;;18.50;;
20369;SDS011;10344;47.592;9.600;2022-08-19T10:05:12;25.10;;;18.98;;
20369;SDS011;10344;47.592;9.600;2022-08-19T10:07:56;23.63;;;18.27;;
20369;SDS011;10344;47.592;9.600;2022-08-19T10:10:22;24.27;;;18.60;;
20369;SDS011;10344;47.592;9.600;2022-08-19T10:12:48;22.27;;;17.42;;
20369;SDS011;10344;47.592;9.600;2022-08-19T10:15:16;27.73;;;20.67;;
20369;SDS011;10344;47.592;9.600;2022-08-19T10:17:46;25.48;;;19.30;;
20369;SDS011;10344;47.592;9.600;2022-08-19T10:20:11;24.57;;;18.93;;
20369;SDS011;10344;47.592;9.600;2022-08-19T10:22:37;20.70;;;17.37;;
20369;SDS011;10344;47.592;9.600;2022-08-19T10:25:03;22.90;;;18.50;;
20369;SDS011;10344;47.592;9.600;2022-08-19T10:27:30;21.08;;;16.15;;
20369;SDS011;10344;47.592;9.600;2022-08-19T10:29:56;22.20;;;17.43;;
20369;SDS011;10344;47.592;9.600;2022-08-19T10:32:22;20.67;;;16.87;;
20369;SDS011;10344;47.592;9.600;2022-08-19T10:34:50;17.98;;;15.05;;
20369;SDS011;10344;47.592;9.600;2022-08-19T10:37:17;19.75;;;15.98;;
20369;SDS011;10344;47.592;9.600;2022-08-19T10:39:45;19.10;;;16.00;;
20369;SDS011;10344;47.592;9.600;2022-08-19T10:42:15;18.70;;;16.02;;
20369;SDS011;10344;47.592;9.600;2022-08-19T10:44:43;17.50;;;14.80;;
20369;SDS011;10344;47.592;9.600;2022-08-19T10:47:10;18.58;;;14.85;;
20369;SDS011;10344;47.592;9.600;2022-08-19T10:49:36;18.05;;;14.07;;
20369;SDS011;10344;47.592;9.600;2022-08-19T10:52:21;18.20;;;15.38;;
20369;SDS011;10344;47.592;9.600;2022-08-19T10:55:00;17.93;;;15.03;;
20369;SDS011;10344;47.592;9.600;2022-08-19T10:57:48;16.42;;;14.00;;
20369;SDS011;10344;47.592;9.600;2022-08-19T11:00:14;19.40;;;15.20;;
20369;SDS011;10344;47.592;9.600;2022-08-19T11:02:44;16.88;;;14.52;;
20369;SDS011;10344;47.592;9.600;2022-08-19T11:05:11;19.57;;;15.80;;
20369;SDS011;10344;47.592;9.600;2022-08-19T11:07:40;16.77;;;14.38;;
20369;SDS011;10344;47.592;9.600;2022-08-19T11:10:10;17.63;;;14.00;;
20369;SDS011;10344;47.592;9.600;2022-08-19T11:12:38;17.15;;;14.45;;
20369;SDS011;10344;47.592;9.600;2022-08-19T11:15:05;18.90;;;15.30;;
20369;SDS011;10344;47.592;9.600;2022-08-19T11:17:33;18.50;;;14.02;;
20369;SDS011;10344;47.592;9.600;2022-08-19T11:20:00;17.87;;;14.13;;
20369;SDS011;10344;47.592;9.600;2022-08-19T11:22:30;17.47;;;14.30;;
20369;SDS011;10344;47.592;9.600;2022-08-19T11:24:56;17.00;;;14.10;;
20369;SDS011;10344;47.592;9.600;2022-08-19T11:27:22;16.80;;;13.70;;
20369;SDS011;10344;47.592;9.600;2022-08-19T11:29:47;16.07;;;12.77;;
20369;SDS011;10344;47.592;9.600;2022-08-19T11:32:13;16.88;;;13.32;;
20369;SDS011;10344;47.592;9.600;2022-08-19T11:34:39;15.37;;;12.57;;
20369;SDS011;10344;47.592;9.600;2022-08-19T11:37:05;14.10;;;12.60;;
20369;SDS011;10344;47.592;9.600;2022-08-19T11:39:31;15.23;;;13.07;;
20369;SDS011;10344;47.592;9.600;2022-08-19T11:41:59;15.63;;;12.87;;
20369;SDS011;10344;47.592;9.600;2022-08-19T11:44:27;13.77;;;11.75;;
20369;SDS011;10344;47.592;9.600;2022-08-19T11:46:57;12.85;;;10.65;;
20369;SDS011;10344;47.592;9.600;2022-08-19T11:49:25;12.02;;;10.52;;
20369;SDS011;10344;47.592;9.600;2022-08-19T11:51:51;12.23;;;10.83;;
20369;SDS011;10344;47.592;9.600;2022-08-19T11:54:16;12.00;;;10.67;;
20369;SDS011;10344;47.592;9.600;2022-08-19T11:56:42;12.53;;;10.77;;
20369;SDS011;10344;47.592;9.600;2022-08-19T11:59:08;13.48;;;10.90;;
20369;SDS011;10344;47.592;9.600;2022-08-19T12:01:35;11.47;;;10.00;;
20369;SDS011;10344;47.592;9.600;2022-08-19T12:04:01;12.23;;;9.77;;
20369;SDS011;10344;47.592;9.600;2022-08-19T12:06:30;12.05;;;10.20;;
20369;SDS011;10344;47.592;9.600;2022-08-19T12:08:58;12.15;;;10.23;;
20369;SDS011;10344;47.592;9.600;2022-08-19T12:11:25;10.40;;;9.30;;
20369;SDS011;10344;47.592;9.600;2022-08-19T12:13:51;11.17;;;9.63;;
20369;SDS011;10344;47.592;9.600;2022-08-19T12:16:20;11.13;;;8.90;;
20369;SDS011;10344;47.592;9.600;2022-08-19T12:18:48;11.38;;;10.18;;
20369;SDS011;10344;47.592;9.600;2022-08-19T12:21:18;9.95;;;8.68;;
20369;SDS011;10344;47.592;9.600;2022-08-19T12:23:53;10.63;;;9.40;;
20369;SDS011;10344;47.592;9.600;2022-08-19T12:26:19;11.60;;;10.37;;
20369;SDS011;10344;47.592;9.600;2022-08-19T12:28:45;10.83;;;9.43;;
20369;SDS011;10344;47.592;9.600;2022-08-19T12:31:12;11.43;;;10.10;;
20369;SDS011;10344;47.592;9.600;2022-08-19T12:33:39;13.05;;;11.70;;
20369;SDS011;10344;47.592;9.600;2022-08-19T12:36:06;12.15;;;10.85;;
20369;SDS011;10344;47.592;9.600;2022-08-19T12:38:34;14.02;;;11.10;;
20369;SDS011;10344;47.592;9.600;2022-08-19T12:41:01;13.75;;;11.73;;
20369;SDS011;10344;47.592;9.600;2022-08-19T12:43:31;16.13;;;12.40;;
20369;SDS011;10344;47.592;9.600;2022-08-19T12:46:02;15.17;;;12.53;;
20369;SDS011;10344;47.592;9.600;2022-08-19T12:48:29;15.77;;;13.52;;
20369;SDS011;10344;47.592;9.600;2022-08-19T12:50:55;14.82;;;12.15;;
20369;SDS011;10344;47.592;9.600;2022-08-19T12:53:21;13.40;;;12.00;;
20369;SDS011;10344;47.592;9.600;2022-08-19T12:55:47;14.85;;;12.93;;
20369;SDS011;10344;47.592;9.600;2022-08-19T12:58:12;14.00;;;12.48;;
20369;SDS011;10344;47.592;9.600;2022-08-19T13:00:38;13.73;;;12.02;;
20369;SDS011;10344;47.592;9.600;2022-08-19T13:03:04;13.43;;;12.02;;
20369;SDS011;10344;47.592;9.600;2022-08-19T13:05:31;13.52;;;11.82;;
20369;SDS011;10344;47.592;9.600;2022-08-19T13:07:58;14.07;;;11.95;;
20369;SDS011;10344;47.592;9.600;2022-08-19T13:10:28;13.50;;;12.05;;
20369;SDS011;10344;47.592;9.600;2022-08-19T13:12:59;12.63;;;10.88;;
20369;SDS011;10344;47.592;9.600;2022-08-19T13:15:28;12.88;;;11.57;;
20369;SDS011;10344;47.592;9.600;2022-08-19T13:17:57;15.63;;;14.03;;
20369;SDS011;10344;47.592;9.600;2022-08-19T13:20:23;15.70;;;13.57;;
20369;SDS011;10344;47.592;9.600;2022-08-19T13:22:49;15.00;;;13.07;;
20369;SDS011;10344;47.592;9.600;2022-08-19T13:25:16;14.77;;;12.85;;
20369;SDS011;10344;47.592;9.600;2022-08-19T13:27:47;14.82;;;13.30;;
20369;SDS011;10344;47.592;9.600;2022-08-19T13:30:14;15.17;;;13.57;;
20369;SDS011;10344;47.592;9.600;2022-08-19T13:33:00;14.80;;;13.18;;
20369;SDS011;10344;47.592;9.600;2022-08-19T13:35:42;14.98;;;12.98;;
20369;SDS011;10344;47.592;9.600;2022-08-19T13:38:14;15.40;;;13.68;;
20369;SDS011;10344;47.592;9.600;2022-08-19T13:40:42;15.80;;;13.88;;
20369;SDS011;10344;47.592;9.600;2022-08-19T13:43:08;17.27;;;15.07;;
20369;SDS011;10344;47.592;9.600;2022-08-19T13:45:34;14.65;;;13.15;;
20369;SDS011;10344;47.592;9.600;2022-08-19T13:48:01;17.48;;;15.07;;
20369;SDS011;10344;47.592;9.600;2022-08-19T13:50:31;17.25;;;15.00;;
20369;SDS011;10344;47.592;9.600;2022-08-19T13:52:58;17.52;;;15.38;;
20369;SDS011;10344;47.592;9.600;2022-08-19T13:55:25;17.27;;;14.93;;
20369;SDS011;10344;47.592;9.600;2022-08-19T13:57:55;15.20;;;13.60;;
20369;SDS011;10344;47.592;9.600;2022-08-19T14:00:23;17.35;;;14.23;;
20369;SDS011;10344;47.592;9.600;2022-08-19T14:02:53;17.50;;;15.07;;
20369;SDS011;10344;47.592;9.600;2022-08-19T14:05:20;18.33;;;15.68;;
20369;SDS011;10344;47.592;9.600;2022-08-19T14:07:47;18.80;;;16.38;;
20369;SDS011;10344;47.592;9.600;2022-08-19T14:10:13;18.37;;;15.93;;
20369;SDS011;10344;47.592;9.600;2022-08-19T14:12:40;19.60;;;17.20;;
20369;SDS011;10344;47.592;9.600;2022-08-19T14:15:06;18.92;;;16.77;;
20369;SDS011;10344;47.592;9.600;2022-08-19T14:17:34;19.88;;;17.23;;
20369;SDS011;10344;47.592;9.600;2022-08-19T14:20:04;18.02;;;16.13;;
20369;SDS011;10344;47.592;9.600;2022-08-19T14:22:38;21.00;;;17.60;;
20369;SDS011;10344;47.592;9.600;2022-08-19T14:25:06;19.20;;;17.13;;
20369;SDS011;10344;47.592;9.600;2022-08-19T14:27:34;20.17;;;17.80;;
20369;SDS011;10344;47.592;9.600;2022-08-19T14:30:01;18.98;;;16.35;;
20369;SDS011;10344;47.592;9.600;2022-08-19T14:32:28;18.27;;;16.38;;
20369;SDS011;10344;47.592;9.600;2022-08-19T14:34:53;19.10;;;16.70;;
20369;SDS011;10344;47.592;9.600;2022-08-19T14:37:19;19.98;;;17.52;;
20369;SDS011;10344;47.592;9.600;2022-08-19T14:39:46;20.98;;;17.60;;
20369;SDS011;10344;47.592;9.600;2022-08-19T14:42:12;20.13;;;17.77;;
20369;SDS011;10344;47.592;9.600;2022-08-19T14:44:39;19.70;;;17.05;;
20369;SDS011;10344;47.592;9.600;2022-08-19T14:47:05;21.98;;;17.88;;
20369;SDS011;10344;47.592;9.600;2022-08-19T14:49:32;20.20;;;17.70;;
20369;SDS011;10344;47.592;9.600;2022-08-19T14:51:58;20.30;;;17.67;;
20369;SDS011;10344;47.592;9.600;2022-08-19T14:54:24;19.83;;;17.47;;